This is the latest recevied weather packets stored in our database for station/object VK5ARG-5. If no packets are shown the sender has not sent any weather packets the latest 10 day(s).
| Time | Temp. | Humidity | Pressure | Rain* | Wind** | Luminosity | Snow |
|---|---|---|---|---|---|---|---|
| 1777959324 | 14.44° C | 64% | - | 0 mm | - | - | - |
| 1777956948 | 13.89° C | 70% | - | 0 mm | - | - | - |
| 1777956323 | 14.44° C | 69% | - | 0 mm | - | - | - |
| 1777955124 | 15° C | 67% | - | 0 mm | - | - | - |
| 1777952123 | 13.89° C | 75% | - | 0 mm | - | - | - |
| 1777950924 | 13.89° C | 75% | - | 0 mm | - | - | - |
| 1777948526 | 13.89° C | 85% | - | 0 mm | - | - | - |
| 1777947328 | 12.78° C | 91% | - | 0 mm | - | - | - |
| 1777945525 | 12.22° C | 96% | - | 0 mm | - | - | - |
| 1777941325 | 11.67° C | 99% | - | 0 mm | - | - | - |
| 1777939523 | 11.11° C | 99% | - | 0 mm | - | - | - |
| 1777936522 | 11.11° C | 99% | - | 0 mm | - | - | - |
| 1777935926 | 11.11° C | 99% | - | 0 mm | - | - | - |
| 1777932925 | 10.56° C | 99% | - | 0 mm | - | - | - |
| 1777926328 | 10.56° C | 99% | - | 0 mm | - | - | - |
| 1777923942 | 10.56° C | 99% | - | 0 mm | - | - | - |
| 1777920928 | 10.56° C | 99% | - | 0 mm | - | - | - |
| 1777918542 | 10.56° C | 99% | - | 0 mm | - | - | - |
| 1777916750 | 10.56° C | 99% | - | 0 mm | - | - | - |
| 1777915521 | 10.56° C | 98% | - | 0 mm | - | - | - |
| 1777912550 | 10.56° C | 98% | - | 0 mm | - | - | - |
| 1777905944 | 10.56° C | 98% | - | 0 mm | - | - | - |
| 1777905328 | 10.56° C | 98% | - | 0 mm | - | - | - |
| 1777904745 | 10.56° C | 98% | - | 0 mm | - | - | - |
| 1777897522 | 11.11° C | 96% | - | 0 mm | - | - | - |
* Rain latest hour (hover to see other rain measurements)
** Current wind speed in m/s (hover to see current wind gust speed)